Airfield :
LOGIN :

Register | Disclaimer

   EN    FR    IT 

 










Legend :    VFR   Marginal VFR   IFR   Intensive IFR   Very Intensive IFR
Visi :
Ceiling :
>= 8 km
>= 3000ft
5 to 8 km
1000 to 3000 ft
1500m to 5 km
500 to 1000 ft
800 to 1500m
200 to 500 ft
< 800m
< 200 ft
Symbols :   Thunderstorms  Fog  Heavy snow  Heavy precipitations  Wind > 20 kt
SIGMETs :     Misc.  Thunderstorms  Icing  Turbulence  Mountain Waves  Volcanic Ashes






- Airport Elevation : 425 ft
- IATA code : DTM


EDLW - Dortmund

CURRENT METAR :
  • 300250Z AUTO 12003KT 9999 // NCD 09/04 Q1025

EXPIRED METARs :
  • 300220Z AUTO 09003KT 9999 // NCD 10/03 Q1025
  • 300150Z AUTO 10004KT 9999 // NCD 10/04 Q1025
  • 300120Z AUTO 12003KT 9999 // NCD 11/04 Q1025
  • 300050Z AUTO 10004KT 9999 // NCD 10/03 Q1025

TAF TAF EDLW
Valid from the 29 at 12:00 until the 30 at 12:00 UTC


291100Z 2912/3012 06009KT CAVOK
BECMG 2918/2921 08004KT
BECMG 3008/3011 06010KT



MET'MAP, your aeronautical weather chart ! - Copyright ORBIFLY December 2007 - Disclaimer

ORBIFLY MET'MAP TEAM :

Programming & Development : Alexandra Zaïnal
Concept & original design : Baudouin d'Aumeries
Assistance for programming : Marc-Olivier Méhu
Technical & hardware support : Manuel Goepfert

Contact : metmap@orbifly.com




SOURCES & CREDITS :

   NOAA